sensor_id;sensor_type;location;lat;lon;timestamp;P1;durP1;ratioP1;P2;durP2;ratioP2
357;SDS011;167;47.558;7.602;2023-08-01T00:01:27;6.20;;;5.60;;
357;SDS011;167;47.558;7.602;2023-08-01T00:03:53;4.97;;;4.67;;
357;SDS011;167;47.558;7.602;2023-08-01T00:06:19;5.50;;;5.10;;
357;SDS011;167;47.558;7.602;2023-08-01T00:08:47;6.23;;;5.83;;
357;SDS011;167;47.558;7.602;2023-08-01T00:11:13;6.77;;;6.10;;
357;SDS011;167;47.558;7.602;2023-08-01T00:13:39;7.77;;;7.17;;
357;SDS011;167;47.558;7.602;2023-08-01T00:16:05;7.10;;;6.60;;
357;SDS011;167;47.558;7.602;2023-08-01T00:18:31;5.77;;;5.27;;
357;SDS011;167;47.558;7.602;2023-08-01T00:20:57;5.43;;;5.03;;
357;SDS011;167;47.558;7.602;2023-08-01T00:23:24;5.50;;;4.83;;
357;SDS011;167;47.558;7.602;2023-08-01T00:25:50;5.47;;;4.97;;
357;SDS011;167;47.558;7.602;2023-08-01T00:28:16;5.17;;;4.70;;
357;SDS011;167;47.558;7.602;2023-08-01T00:30:42;5.80;;;4.90;;
357;SDS011;167;47.558;7.602;2023-08-01T00:33:08;5.30;;;4.80;;
357;SDS011;167;47.558;7.602;2023-08-01T00:35:34;5.57;;;5.07;;
357;SDS011;167;47.558;7.602;2023-08-01T00:38:00;4.83;;;4.43;;
357;SDS011;167;47.558;7.602;2023-08-01T00:40:32;4.57;;;4.23;;
357;SDS011;167;47.558;7.602;2023-08-01T00:42:58;4.60;;;4.30;;
357;SDS011;167;47.558;7.602;2023-08-01T00:45:25;4.30;;;4.00;;
357;SDS011;167;47.558;7.602;2023-08-01T00:47:52;5.53;;;4.80;;
357;SDS011;167;47.558;7.602;2023-08-01T00:50:18;5.00;;;4.60;;
357;SDS011;167;47.558;7.602;2023-08-01T00:52:47;4.70;;;4.40;;
357;SDS011;167;47.558;7.602;2023-08-01T00:55:14;3.60;;;3.30;;
357;SDS011;167;47.558;7.602;2023-08-01T00:57:40;3.97;;;3.77;;
357;SDS011;167;47.558;7.602;2023-08-01T01:00:06;3.03;;;2.83;;
357;SDS011;167;47.558;7.602;2023-08-01T01:02:32;2.97;;;2.77;;
357;SDS011;167;47.558;7.602;2023-08-01T01:04:58;2.80;;;2.70;;
357;SDS011;167;47.558;7.602;2023-08-01T01:07:25;3.10;;;2.90;;
357;SDS011;167;47.558;7.602;2023-08-01T01:09:51;3.30;;;3.00;;
357;SDS011;167;47.558;7.602;2023-08-01T01:12:17;2.83;;;2.63;;
357;SDS011;167;47.558;7.602;2023-08-01T01:14:43;3.10;;;2.90;;
357;SDS011;167;47.558;7.602;2023-08-01T01:17:09;2.80;;;2.60;;
357;SDS011;167;47.558;7.602;2023-08-01T01:19:35;2.50;;;2.23;;
357;SDS011;167;47.558;7.602;2023-08-01T01:22:04;2.80;;;2.70;;
357;SDS011;167;47.558;7.602;2023-08-01T01:24:30;2.97;;;2.77;;
357;SDS011;167;47.558;7.602;2023-08-01T01:26:57;3.13;;;2.87;;
357;SDS011;167;47.558;7.602;2023-08-01T01:29:25;3.17;;;2.97;;
357;SDS011;167;47.558;7.602;2023-08-01T01:31:51;2.97;;;2.73;;
357;SDS011;167;47.558;7.602;2023-08-01T01:34:18;2.00;;;1.90;;
357;SDS011;167;47.558;7.602;2023-08-01T01:36:44;2.70;;;2.20;;
357;SDS011;167;47.558;7.602;2023-08-01T01:39:09;7.03;;;3.10;;
357;SDS011;167;47.558;7.602;2023-08-01T01:41:36;2.87;;;2.40;;
357;SDS011;167;47.558;7.602;2023-08-01T01:44:02;2.50;;;2.40;;
357;SDS011;167;47.558;7.602;2023-08-01T01:46:27;1.90;;;1.80;;
357;SDS011;167;47.558;7.602;2023-08-01T01:48:53;2.50;;;2.10;;
357;SDS011;167;47.558;7.602;2023-08-01T01:51:20;2.43;;;2.23;;
357;SDS011;167;47.558;7.602;2023-08-01T01:53:47;2.43;;;2.23;;
357;SDS011;167;47.558;7.602;2023-08-01T01:56:13;2.00;;;1.90;;
357;SDS011;167;47.558;7.602;2023-08-01T01:58:39;3.97;;;3.00;;
357;SDS011;167;47.558;7.602;2023-08-01T02:01:05;2.80;;;2.60;;
357;SDS011;167;47.558;7.602;2023-08-01T02:03:31;2.40;;;2.30;;
357;SDS011;167;47.558;7.602;2023-08-01T02:05:57;2.30;;;2.20;;
357;SDS011;167;47.558;7.602;2023-08-01T02:08:23;3.07;;;2.77;;
357;SDS011;167;47.558;7.602;2023-08-01T02:10:49;2.60;;;2.50;;
357;SDS011;167;47.558;7.602;2023-08-01T02:13:15;2.27;;;2.07;;
357;SDS011;167;47.558;7.602;2023-08-01T02:15:41;2.90;;;2.70;;
357;SDS011;167;47.558;7.602;2023-08-01T02:18:07;2.50;;;2.40;;
357;SDS011;167;47.558;7.602;2023-08-01T02:20:33;2.97;;;2.47;;
357;SDS011;167;47.558;7.602;2023-08-01T02:22:59;2.20;;;2.10;;
357;SDS011;167;47.558;7.602;2023-08-01T02:25:25;2.97;;;2.47;;
357;SDS011;167;47.558;7.602;2023-08-01T02:27:51;2.33;;;2.20;;
357;SDS011;167;47.558;7.602;2023-08-01T02:30:17;2.47;;;2.03;;
357;SDS011;167;47.558;7.602;2023-08-01T02:32:43;2.20;;;2.10;;
357;SDS011;167;47.558;7.602;2023-08-01T02:35:09;2.77;;;2.57;;
357;SDS011;167;47.558;7.602;2023-08-01T02:37:35;3.57;;;2.13;;
357;SDS011;167;47.558;7.602;2023-08-01T02:40:02;1.83;;;1.73;;
357;SDS011;167;47.558;7.602;2023-08-01T02:42:32;2.60;;;2.40;;
357;SDS011;167;47.558;7.602;2023-08-01T02:44:58;1.83;;;1.70;;
357;SDS011;167;47.558;7.602;2023-08-01T02:47:24;2.37;;;2.17;;
357;SDS011;167;47.558;7.602;2023-08-01T02:49:50;2.20;;;2.10;;
357;SDS011;167;47.558;7.602;2023-08-01T02:52:16;2.37;;;1.60;;
357;SDS011;167;47.558;7.602;2023-08-01T02:54:42;1.83;;;1.73;;
357;SDS011;167;47.558;7.602;2023-08-01T02:57:08;1.50;;;1.40;;
357;SDS011;167;47.558;7.602;2023-08-01T02:59:34;2.07;;;1.97;;
357;SDS011;167;47.558;7.602;2023-08-01T03:02:00;2.83;;;2.63;;
357;SDS011;167;47.558;7.602;2023-08-01T03:04:26;1.80;;;1.70;;
357;SDS011;167;47.558;7.602;2023-08-01T03:06:52;2.90;;;1.90;;
357;SDS011;167;47.558;7.602;2023-08-01T03:09:18;2.10;;;2.00;;
357;SDS011;167;47.558;7.602;2023-08-01T03:11:44;2.60;;;1.60;;
357;SDS011;167;47.558;7.602;2023-08-01T03:14:10;1.90;;;1.80;;
357;SDS011;167;47.558;7.602;2023-08-01T03:16:36;2.60;;;2.40;;
357;SDS011;167;47.558;7.602;2023-08-01T03:19:02;2.17;;;1.83;;
357;SDS011;167;47.558;7.602;2023-08-01T03:21:32;2.13;;;1.90;;
357;SDS011;167;47.558;7.602;2023-08-01T03:23:59;1.87;;;1.77;;
357;SDS011;167;47.558;7.602;2023-08-01T03:26:25;2.20;;;2.00;;
357;SDS011;167;47.558;7.602;2023-08-01T03:28:55;2.20;;;2.00;;
357;SDS011;167;47.558;7.602;2023-08-01T03:31:21;2.17;;;1.97;;
357;SDS011;167;47.558;7.602;2023-08-01T03:33:47;1.90;;;1.70;;
357;SDS011;167;47.558;7.602;2023-08-01T03:36:13;2.17;;;1.97;;
357;SDS011;167;47.558;7.602;2023-08-01T03:38:39;2.30;;;2.10;;
357;SDS011;167;47.558;7.602;2023-08-01T03:41:05;2.33;;;2.17;;
357;SDS011;167;47.558;7.602;2023-08-01T03:43:31;3.90;;;2.20;;
357;SDS011;167;47.558;7.602;2023-08-01T03:45:57;2.17;;;2.07;;
357;SDS011;167;47.558;7.602;2023-08-01T03:48:23;2.30;;;2.20;;
357;SDS011;167;47.558;7.602;2023-08-01T03:50:49;2.30;;;2.10;;
357;SDS011;167;47.558;7.602;2023-08-01T03:53:15;3.80;;;2.40;;
357;SDS011;167;47.558;7.602;2023-08-01T03:55:43;1.80;;;1.70;;
357;SDS011;167;47.558;7.602;2023-08-01T03:58:09;2.00;;;1.90;;
357;SDS011;167;47.558;7.602;2023-08-01T04:00:35;2.43;;;2.23;;
357;SDS011;167;47.558;7.602;2023-08-01T04:03:01;2.27;;;2.17;;
357;SDS011;167;47.558;7.602;2023-08-01T04:05:27;2.10;;;2.00;;
357;SDS011;167;47.558;7.602;2023-08-01T04:07:53;2.20;;;2.10;;
357;SDS011;167;47.558;7.602;2023-08-01T04:10:20;2.20;;;2.03;;
357;SDS011;167;47.558;7.602;2023-08-01T04:12:46;3.83;;;2.30;;
357;SDS011;167;47.558;7.602;2023-08-01T04:15:12;2.03;;;1.93;;
357;SDS011;167;47.558;7.602;2023-08-01T04:17:38;3.03;;;2.83;;
357;SDS011;167;47.558;7.602;2023-08-01T04:20:04;2.17;;;1.97;;
357;SDS011;167;47.558;7.602;2023-08-01T04:22:30;2.17;;;2.07;;
357;SDS011;167;47.558;7.602;2023-08-01T04:24:56;4.40;;;2.57;;
357;SDS011;167;47.558;7.602;2023-08-01T04:27:22;2.60;;;2.30;;
357;SDS011;167;47.558;7.602;2023-08-01T04:29:48;2.30;;;2.20;;
357;SDS011;167;47.558;7.602;2023-08-01T04:32:14;2.20;;;2.10;;
357;SDS011;167;47.558;7.602;2023-08-01T04:34:43;2.63;;;2.40;;
357;SDS011;167;47.558;7.602;2023-08-01T04:37:09;3.93;;;1.97;;
357;SDS011;167;47.558;7.602;2023-08-01T04:39:38;2.30;;;2.20;;
357;SDS011;167;47.558;7.602;2023-08-01T04:42:04;2.10;;;1.90;;
357;SDS011;167;47.558;7.602;2023-08-01T04:44:30;2.37;;;2.17;;
357;SDS011;167;47.558;7.602;2023-08-01T04:46:56;3.43;;;2.30;;
357;SDS011;167;47.558;7.602;2023-08-01T04:49:22;2.40;;;2.20;;
357;SDS011;167;47.558;7.602;2023-08-01T04:51:49;2.17;;;2.07;;
357;SDS011;167;47.558;7.602;2023-08-01T04:54:15;1.93;;;1.83;;
357;SDS011;167;47.558;7.602;2023-08-01T04:56:41;2.03;;;1.93;;
357;SDS011;167;47.558;7.602;2023-08-01T04:59:07;2.70;;;2.20;;
357;SDS011;167;47.558;7.602;2023-08-01T05:01:33;2.93;;;2.13;;
357;SDS011;167;47.558;7.602;2023-08-01T05:03:59;3.20;;;2.73;;
357;SDS011;167;47.558;7.602;2023-08-01T05:06:25;4.33;;;2.40;;
357;SDS011;167;47.558;7.602;2023-08-01T05:08:52;3.03;;;2.67;;
357;SDS011;167;47.558;7.602;2023-08-01T05:11:18;3.70;;;3.03;;
357;SDS011;167;47.558;7.602;2023-08-01T05:13:44;2.43;;;2.30;;
357;SDS011;167;47.558;7.602;2023-08-01T05:16:10;4.00;;;2.17;;
357;SDS011;167;47.558;7.602;2023-08-01T05:18:36;2.03;;;1.90;;
357;SDS011;167;47.558;7.602;2023-08-01T05:21:02;2.70;;;2.50;;
357;SDS011;167;47.558;7.602;2023-08-01T05:23:28;2.83;;;2.60;;
357;SDS011;167;47.558;7.602;2023-08-01T05:25:54;3.00;;;2.70;;
357;SDS011;167;47.558;7.602;2023-08-01T05:28:20;6.03;;;3.17;;
357;SDS011;167;47.558;7.602;2023-08-01T05:30:46;2.93;;;2.63;;
357;SDS011;167;47.558;7.602;2023-08-01T05:33:12;3.30;;;2.83;;
357;SDS011;167;47.558;7.602;2023-08-01T05:35:38;3.50;;;3.20;;
357;SDS011;167;47.558;7.602;2023-08-01T05:38:04;4.67;;;3.00;;
357;SDS011;167;47.558;7.602;2023-08-01T05:40:31;8.60;;;2.77;;
357;SDS011;167;47.558;7.602;2023-08-01T05:42:57;2.80;;;2.60;;
357;SDS011;167;47.558;7.602;2023-08-01T05:45:23;4.13;;;2.90;;
357;SDS011;167;47.558;7.602;2023-08-01T05:47:49;4.80;;;3.10;;
357;SDS011;167;47.558;7.602;2023-08-01T05:50:15;3.37;;;3.07;;
357;SDS011;167;47.558;7.602;2023-08-01T05:52:41;3.87;;;3.47;;
357;SDS011;167;47.558;7.602;2023-08-01T05:55:07;4.53;;;3.10;;
357;SDS011;167;47.558;7.602;2023-08-01T05:57:33;3.40;;;3.10;;
357;SDS011;167;47.558;7.602;2023-08-01T05:59:59;3.13;;;2.87;;
357;SDS011;167;47.558;7.602;2023-08-01T06:02:25;4.03;;;3.17;;
357;SDS011;167;47.558;7.602;2023-08-01T06:04:52;3.00;;;2.80;;
357;SDS011;167;47.558;7.602;2023-08-01T06:07:18;4.00;;;3.67;;
357;SDS011;167;47.558;7.602;2023-08-01T06:09:48;5.47;;;3.33;;
357;SDS011;167;47.558;7.602;2023-08-01T06:12:16;3.83;;;2.70;;
357;SDS011;167;47.558;7.602;2023-08-01T06:14:42;4.70;;;2.80;;
357;SDS011;167;47.558;7.602;2023-08-01T06:17:08;4.20;;;2.97;;
357;SDS011;167;47.558;7.602;2023-08-01T06:19:34;3.30;;;3.00;;
357;SDS011;167;47.558;7.602;2023-08-01T06:22:00;3.33;;;3.07;;
357;SDS011;167;47.558;7.602;2023-08-01T06:24:25;3.53;;;2.80;;
357;SDS011;167;47.558;7.602;2023-08-01T06:26:51;3.00;;;2.70;;
357;SDS011;167;47.558;7.602;2023-08-01T06:29:17;3.17;;;2.90;;
357;SDS011;167;47.558;7.602;2023-08-01T06:31:43;3.20;;;2.67;;
357;SDS011;167;47.558;7.602;2023-08-01T06:34:09;2.77;;;2.57;;
357;SDS011;167;47.558;7.602;2023-08-01T06:36:35;2.67;;;2.47;;
357;SDS011;167;47.558;7.602;2023-08-01T06:39:01;3.50;;;3.13;;
357;SDS011;167;47.558;7.602;2023-08-01T06:41:28;3.23;;;3.03;;
357;SDS011;167;47.558;7.602;2023-08-01T06:43:54;2.80;;;2.60;;
357;SDS011;167;47.558;7.602;2023-08-01T06:46:20;3.13;;;2.93;;
357;SDS011;167;47.558;7.602;2023-08-01T06:48:46;2.60;;;2.50;;
357;SDS011;167;47.558;7.602;2023-08-01T06:51:12;2.63;;;2.43;;
357;SDS011;167;47.558;7.602;2023-08-01T06:53:38;3.13;;;2.83;;
357;SDS011;167;47.558;7.602;2023-08-01T06:56:04;2.70;;;2.50;;
357;SDS011;167;47.558;7.602;2023-08-01T06:58:30;2.90;;;2.70;;
357;SDS011;167;47.558;7.602;2023-08-01T07:00:55;4.23;;;3.50;;
357;SDS011;167;47.558;7.602;2023-08-01T07:03:21;4.03;;;2.70;;
357;SDS011;167;47.558;7.602;2023-08-01T07:05:47;3.43;;;3.13;;
357;SDS011;167;47.558;7.602;2023-08-01T07:08:13;3.10;;;2.90;;
357;SDS011;167;47.558;7.602;2023-08-01T07:10:39;3.00;;;2.80;;
357;SDS011;167;47.558;7.602;2023-08-01T07:13:05;3.23;;;2.93;;
357;SDS011;167;47.558;7.602;2023-08-01T07:15:31;3.07;;;2.87;;
357;SDS011;167;47.558;7.602;2023-08-01T07:17:57;3.43;;;3.20;;
357;SDS011;167;47.558;7.602;2023-08-01T07:20:23;2.80;;;2.60;;
357;SDS011;167;47.558;7.602;2023-08-01T07:22:49;3.27;;;2.77;;
357;SDS011;167;47.558;7.602;2023-08-01T07:25:15;2.73;;;2.53;;
357;SDS011;167;47.558;7.602;2023-08-01T07:27:42;2.60;;;2.40;;
357;SDS011;167;47.558;7.602;2023-08-01T07:30:08;2.63;;;2.43;;
357;SDS011;167;47.558;7.602;2023-08-01T07:32:37;3.07;;;2.87;;
357;SDS011;167;47.558;7.602;2023-08-01T07:35:06;3.17;;;2.83;;
357;SDS011;167;47.558;7.602;2023-08-01T07:37:33;3.00;;;2.73;;
357;SDS011;167;47.558;7.602;2023-08-01T07:39:59;2.90;;;2.70;;
357;SDS011;167;47.558;7.602;2023-08-01T07:42:24;2.33;;;2.13;;
357;SDS011;167;47.558;7.602;2023-08-01T07:44:50;2.10;;;1.77;;
357;SDS011;167;47.558;7.602;2023-08-01T07:47:16;2.00;;;1.90;;
357;SDS011;167;47.558;7.602;2023-08-01T07:49:42;2.63;;;1.90;;
357;SDS011;167;47.558;7.602;2023-08-01T07:52:08;2.33;;;2.13;;
357;SDS011;167;47.558;7.602;2023-08-01T07:54:35;1.60;;;1.50;;
357;SDS011;167;47.558;7.602;2023-08-01T07:57:01;1.57;;;1.47;;
357;SDS011;167;47.558;7.602;2023-08-01T07:59:26;1.67;;;1.57;;
357;SDS011;167;47.558;7.602;2023-08-01T08:01:52;1.57;;;1.47;;
357;SDS011;167;47.558;7.602;2023-08-01T08:04:18;2.00;;;1.80;;
357;SDS011;167;47.558;7.602;2023-08-01T08:06:44;1.53;;;1.43;;
357;SDS011;167;47.558;7.602;2023-08-01T08:09:10;1.40;;;1.30;;
357;SDS011;167;47.558;7.602;2023-08-01T08:11:36;1.73;;;1.40;;
357;SDS011;167;47.558;7.602;2023-08-01T08:14:02;1.77;;;1.67;;
357;SDS011;167;47.558;7.602;2023-08-01T08:16:28;1.70;;;1.60;;
357;SDS011;167;47.558;7.602;2023-08-01T08:18:54;1.87;;;1.77;;
357;SDS011;167;47.558;7.602;2023-08-01T08:21:20;1.50;;;1.40;;
357;SDS011;167;47.558;7.602;2023-08-01T08:23:46;1.80;;;1.70;;
357;SDS011;167;47.558;7.602;2023-08-01T08:26:12;1.77;;;1.30;;
357;SDS011;167;47.558;7.602;2023-08-01T08:28:38;1.20;;;1.10;;
357;SDS011;167;47.558;7.602;2023-08-01T08:31:07;1.30;;;1.30;;
357;SDS011;167;47.558;7.602;2023-08-01T08:33:32;1.03;;;1.03;;
357;SDS011;167;47.558;7.602;2023-08-01T08:35:59;1.13;;;1.10;;
357;SDS011;167;47.558;7.602;2023-08-01T08:38:25;4.53;;;1.33;;
357;SDS011;167;47.558;7.602;2023-08-01T08:41:02;1.70;;;1.60;;
357;SDS011;167;47.558;7.602;2023-08-01T08:43:32;1.10;;;1.10;;
357;SDS011;167;47.558;7.602;2023-08-01T08:45:59;1.07;;;0.70;;
357;SDS011;167;47.558;7.602;2023-08-01T08:48:25;0.97;;;0.97;;
357;SDS011;167;47.558;7.602;2023-08-01T08:50:52;0.90;;;0.90;;
357;SDS011;167;47.558;7.602;2023-08-01T08:53:18;1.10;;;1.10;;
357;SDS011;167;47.558;7.602;2023-08-01T08:55:44;0.77;;;0.77;;
357;SDS011;167;47.558;7.602;2023-08-01T08:58:10;1.20;;;1.10;;
357;SDS011;167;47.558;7.602;2023-08-01T09:00:37;0.93;;;0.93;;
357;SDS011;167;47.558;7.602;2023-08-01T09:03:06;1.30;;;1.20;;
357;SDS011;167;47.558;7.602;2023-08-01T09:05:38;1.60;;;1.50;;
357;SDS011;167;47.558;7.602;2023-08-01T09:08:07;1.23;;;1.20;;
357;SDS011;167;47.558;7.602;2023-08-01T09:10:33;1.67;;;1.57;;
357;SDS011;167;47.558;7.602;2023-08-01T09:13:00;0.90;;;0.90;;
357;SDS011;167;47.558;7.602;2023-08-01T09:15:26;1.03;;;1.03;;
357;SDS011;167;47.558;7.602;2023-08-01T09:17:54;1.27;;;1.20;;
357;SDS011;167;47.558;7.602;2023-08-01T09:20:25;1.17;;;1.17;;
357;SDS011;167;47.558;7.602;2023-08-01T09:22:51;1.23;;;1.23;;
357;SDS011;167;47.558;7.602;2023-08-01T09:25:17;1.77;;;1.20;;
357;SDS011;167;47.558;7.602;2023-08-01T09:27:43;1.40;;;1.30;;
357;SDS011;167;47.558;7.602;2023-08-01T09:30:10;1.17;;;1.17;;
357;SDS011;167;47.558;7.602;2023-08-01T09:32:38;1.33;;;1.23;;
357;SDS011;167;47.558;7.602;2023-08-01T09:35:04;1.10;;;1.00;;
357;SDS011;167;47.558;7.602;2023-08-01T09:37:43;1.67;;;1.50;;
357;SDS011;167;47.558;7.602;2023-08-01T09:40:09;1.43;;;1.33;;
357;SDS011;167;47.558;7.602;2023-08-01T09:42:39;1.33;;;1.10;;
357;SDS011;167;47.558;7.602;2023-08-01T09:45:07;0.80;;;0.80;;
357;SDS011;167;47.558;7.602;2023-08-01T09:47:36;1.47;;;1.37;;
357;SDS011;167;47.558;7.602;2023-08-01T09:50:02;0.90;;;0.90;;
357;SDS011;167;47.558;7.602;2023-08-01T09:52:29;1.70;;;1.20;;
357;SDS011;167;47.558;7.602;2023-08-01T09:54:55;1.13;;;1.03;;
357;SDS011;167;47.558;7.602;2023-08-01T09:57:21;1.90;;;1.10;;
357;SDS011;167;47.558;7.602;2023-08-01T09:59:47;0.90;;;0.90;;
357;SDS011;167;47.558;7.602;2023-08-01T10:02:14;1.20;;;1.10;;
357;SDS011;167;47.558;7.602;2023-08-01T10:04:41;0.80;;;0.80;;
357;SDS011;167;47.558;7.602;2023-08-01T10:07:08;0.70;;;0.70;;
357;SDS011;167;47.558;7.602;2023-08-01T10:09:36;1.20;;;1.10;;
357;SDS011;167;47.558;7.602;2023-08-01T10:12:03;0.90;;;0.90;;
357;SDS011;167;47.558;7.602;2023-08-01T10:14:31;0.90;;;0.90;;
357;SDS011;167;47.558;7.602;2023-08-01T10:16:57;0.93;;;0.93;;
357;SDS011;167;47.558;7.602;2023-08-01T10:19:24;1.00;;;0.80;;
357;SDS011;167;47.558;7.602;2023-08-01T10:21:51;0.93;;;0.93;;
357;SDS011;167;47.558;7.602;2023-08-01T10:24:17;0.80;;;0.80;;
357;SDS011;167;47.558;7.602;2023-08-01T10:26:44;1.10;;;1.00;;
357;SDS011;167;47.558;7.602;2023-08-01T10:29:11;0.70;;;0.50;;
357;SDS011;167;47.558;7.602;2023-08-01T10:31:37;0.80;;;0.80;;
357;SDS011;167;47.558;7.602;2023-08-01T10:34:07;1.07;;;0.97;;
357;SDS011;167;47.558;7.602;2023-08-01T10:36:33;0.80;;;0.80;;
357;SDS011;167;47.558;7.602;2023-08-01T10:38:59;0.97;;;0.90;;
357;SDS011;167;47.558;7.602;2023-08-01T10:41:26;0.90;;;0.90;;
357;SDS011;167;47.558;7.602;2023-08-01T10:49:16;0.80;;;0.80;;
357;SDS011;167;47.558;7.602;2023-08-01T10:51:42;1.10;;;1.00;;
357;SDS011;167;47.558;7.602;2023-08-01T10:54:21;0.80;;;0.80;;
357;SDS011;167;47.558;7.602;2023-08-01T10:56:48;0.50;;;0.50;;
357;SDS011;167;47.558;7.602;2023-08-01T10:59:14;0.60;;;0.60;;
357;SDS011;167;47.558;7.602;2023-08-01T11:01:44;0.67;;;0.67;;
357;SDS011;167;47.558;7.602;2023-08-01T11:04:17;0.60;;;0.60;;
357;SDS011;167;47.558;7.602;2023-08-01T11:06:45;0.67;;;0.67;;
357;SDS011;167;47.558;7.602;2023-08-01T11:09:24;0.70;;;0.70;;
357;SDS011;167;47.558;7.602;2023-08-01T11:11:54;0.50;;;0.50;;
357;SDS011;167;47.558;7.602;2023-08-01T11:14:21;0.70;;;0.70;;
357;SDS011;167;47.558;7.602;2023-08-01T11:16:47;0.80;;;0.80;;
357;SDS011;167;47.558;7.602;2023-08-01T11:19:17;1.07;;;0.90;;
357;SDS011;167;47.558;7.602;2023-08-01T11:21:43;0.67;;;0.67;;
357;SDS011;167;47.558;7.602;2023-08-01T11:24:09;0.60;;;0.60;;
357;SDS011;167;47.558;7.602;2023-08-01T11:26:35;0.60;;;0.60;;
357;SDS011;167;47.558;7.602;2023-08-01T11:29:02;1.03;;;0.80;;
357;SDS011;167;47.558;7.602;2023-08-01T11:31:28;0.70;;;0.70;;
357;SDS011;167;47.558;7.602;2023-08-01T11:33:56;0.70;;;0.70;;
357;SDS011;167;47.558;7.602;2023-08-01T11:36:24;0.70;;;0.70;;
357;SDS011;167;47.558;7.602;2023-08-01T11:38:50;0.60;;;0.60;;
357;SDS011;167;47.558;7.602;2023-08-01T11:41:16;0.70;;;0.70;;
357;SDS011;167;47.558;7.602;2023-08-01T11:43:42;0.83;;;0.57;;
357;SDS011;167;47.558;7.602;2023-08-01T11:46:09;0.73;;;0.73;;
357;SDS011;167;47.558;7.602;2023-08-01T11:48:35;0.70;;;0.70;;
357;SDS011;167;47.558;7.602;2023-08-01T11:51:01;0.60;;;0.60;;
357;SDS011;167;47.558;7.602;2023-08-01T11:53:28;0.70;;;0.70;;
357;SDS011;167;47.558;7.602;2023-08-01T11:55:54;0.53;;;0.53;;
357;SDS011;167;47.558;7.602;2023-08-01T11:58:54;0.53;;;0.53;;
357;SDS011;167;47.558;7.602;2023-08-01T12:01:14;0.63;;;0.57;;
357;SDS011;167;47.558;7.602;2023-08-01T12:03:46;0.90;;;0.90;;
357;SDS011;167;47.558;7.602;2023-08-01T12:06:12;0.63;;;0.60;;
357;SDS011;167;47.558;7.602;2023-08-01T12:08:41;0.77;;;0.77;;
357;SDS011;167;47.558;7.602;2023-08-01T12:11:20;0.77;;;0.77;;
357;SDS011;167;47.558;7.602;2023-08-01T12:13:47;0.70;;;0.67;;
357;SDS011;167;47.558;7.602;2023-08-01T12:16:13;0.60;;;0.60;;
357;SDS011;167;47.558;7.602;2023-08-01T12:18:45;0.60;;;0.60;;
357;SDS011;167;47.558;7.602;2023-08-01T12:21:12;0.60;;;0.60;;
357;SDS011;167;47.558;7.602;2023-08-01T12:23:39;0.50;;;0.50;;
357;SDS011;167;47.558;7.602;2023-08-01T12:26:05;0.80;;;0.80;;
357;SDS011;167;47.558;7.602;2023-08-01T12:28:32;0.60;;;0.60;;
357;SDS011;167;47.558;7.602;2023-08-01T12:30:58;0.60;;;0.60;;
357;SDS011;167;47.558;7.602;2023-08-01T12:33:24;0.80;;;0.80;;
357;SDS011;167;47.558;7.602;2023-08-01T12:35:50;0.70;;;0.60;;
357;SDS011;167;47.558;7.602;2023-08-01T12:38:17;0.93;;;0.60;;
357;SDS011;167;47.558;7.602;2023-08-01T12:40:43;0.50;;;0.50;;
357;SDS011;167;47.558;7.602;2023-08-01T12:43:08;0.50;;;0.50;;
357;SDS011;167;47.558;7.602;2023-08-01T12:45:34;0.50;;;0.50;;
357;SDS011;167;47.558;7.602;2023-08-01T12:48:00;0.57;;;0.57;;
357;SDS011;167;47.558;7.602;2023-08-01T12:50:26;0.50;;;0.50;;
357;SDS011;167;47.558;7.602;2023-08-01T12:52:52;0.50;;;0.50;;
357;SDS011;167;47.558;7.602;2023-08-01T12:55:18;0.50;;;0.50;;
357;SDS011;167;47.558;7.602;2023-08-01T12:57:44;0.53;;;0.50;;
357;SDS011;167;47.558;7.602;2023-08-01T13:00:10;0.70;;;0.70;;
357;SDS011;167;47.558;7.602;2023-08-01T13:02:36;0.80;;;0.80;;
357;SDS011;167;47.558;7.602;2023-08-01T13:05:03;0.77;;;0.77;;
357;SDS011;167;47.558;7.602;2023-08-01T13:07:29;0.70;;;0.70;;
357;SDS011;167;47.558;7.602;2023-08-01T13:09:57;0.60;;;0.60;;
357;SDS011;167;47.558;7.602;2023-08-01T13:12:23;0.70;;;0.70;;
357;SDS011;167;47.558;7.602;2023-08-01T13:14:49;0.50;;;0.50;;
357;SDS011;167;47.558;7.602;2023-08-01T13:17:15;0.60;;;0.60;;
357;SDS011;167;47.558;7.602;2023-08-01T13:19:41;0.60;;;0.60;;
357;SDS011;167;47.558;7.602;2023-08-01T13:22:07;0.60;;;0.60;;
357;SDS011;167;47.558;7.602;2023-08-01T13:24:33;0.70;;;0.70;;
357;SDS011;167;47.558;7.602;2023-08-01T13:26:59;0.67;;;0.67;;
357;SDS011;167;47.558;7.602;2023-08-01T13:29:25;0.50;;;0.50;;
357;SDS011;167;47.558;7.602;2023-08-01T13:31:51;0.70;;;0.70;;
357;SDS011;167;47.558;7.602;2023-08-01T13:34:17;0.50;;;0.50;;
357;SDS011;167;47.558;7.602;2023-08-01T13:36:43;0.90;;;0.90;;
357;SDS011;167;47.558;7.602;2023-08-01T13:39:09;0.80;;;0.80;;
357;SDS011;167;47.558;7.602;2023-08-01T13:41:35;1.27;;;0.80;;
357;SDS011;167;47.558;7.602;2023-08-01T13:44:01;0.70;;;0.70;;
357;SDS011;167;47.558;7.602;2023-08-01T13:46:27;0.67;;;0.60;;
357;SDS011;167;47.558;7.602;2023-08-01T13:48:53;0.80;;;0.80;;
357;SDS011;167;47.558;7.602;2023-08-01T13:51:19;0.70;;;0.70;;
357;SDS011;167;47.558;7.602;2023-08-01T13:53:45;0.50;;;0.50;;
357;SDS011;167;47.558;7.602;2023-08-01T13:56:11;0.57;;;0.57;;
357;SDS011;167;47.558;7.602;2023-08-01T13:58:39;0.70;;;0.70;;
357;SDS011;167;47.558;7.602;2023-08-01T14:01:05;0.63;;;0.63;;
357;SDS011;167;47.558;7.602;2023-08-01T14:03:37;0.80;;;0.80;;
357;SDS011;167;47.558;7.602;2023-08-01T14:06:13;0.50;;;0.50;;
357;SDS011;167;47.558;7.602;2023-08-01T14:08:40;0.97;;;0.87;;
357;SDS011;167;47.558;7.602;2023-08-01T14:11:07;0.60;;;0.60;;
357;SDS011;167;47.558;7.602;2023-08-01T14:13:33;0.60;;;0.60;;
357;SDS011;167;47.558;7.602;2023-08-01T14:15:59;1.53;;;0.90;;
357;SDS011;167;47.558;7.602;2023-08-01T14:18:26;0.67;;;0.67;;
357;SDS011;167;47.558;7.602;2023-08-01T14:20:52;0.80;;;0.80;;
357;SDS011;167;47.558;7.602;2023-08-01T14:23:18;0.77;;;0.60;;
357;SDS011;167;47.558;7.602;2023-08-01T14:25:45;0.57;;;0.57;;
357;SDS011;167;47.558;7.602;2023-08-01T14:28:11;0.70;;;0.70;;
357;SDS011;167;47.558;7.602;2023-08-01T14:30:37;0.90;;;0.90;;
357;SDS011;167;47.558;7.602;2023-08-01T14:33:04;0.80;;;0.80;;
357;SDS011;167;47.558;7.602;2023-08-01T14:35:30;0.67;;;0.67;;
357;SDS011;167;47.558;7.602;2023-08-01T14:37:56;0.60;;;0.60;;
357;SDS011;167;47.558;7.602;2023-08-01T14:40:22;0.93;;;0.83;;
357;SDS011;167;47.558;7.602;2023-08-01T14:42:48;0.50;;;0.50;;
357;SDS011;167;47.558;7.602;2023-08-01T14:45:15;0.67;;;0.67;;
357;SDS011;167;47.558;7.602;2023-08-01T14:47:41;0.70;;;0.70;;
357;SDS011;167;47.558;7.602;2023-08-01T14:50:11;0.67;;;0.67;;
357;SDS011;167;47.558;7.602;2023-08-01T14:52:37;0.60;;;0.60;;
357;SDS011;167;47.558;7.602;2023-08-01T14:55:03;0.80;;;0.80;;
357;SDS011;167;47.558;7.602;2023-08-01T14:57:30;0.80;;;0.80;;
357;SDS011;167;47.558;7.602;2023-08-01T14:59:56;0.83;;;0.83;;
357;SDS011;167;47.558;7.602;2023-08-01T15:02:22;1.17;;;0.73;;
357;SDS011;167;47.558;7.602;2023-08-01T15:04:51;0.63;;;0.63;;
357;SDS011;167;47.558;7.602;2023-08-01T15:07:18;0.60;;;0.60;;
357;SDS011;167;47.558;7.602;2023-08-01T15:09:44;1.97;;;0.87;;
357;SDS011;167;47.558;7.602;2023-08-01T15:12:10;0.70;;;0.63;;
357;SDS011;167;47.558;7.602;2023-08-01T15:14:37;0.53;;;0.53;;
357;SDS011;167;47.558;7.602;2023-08-01T15:17:03;0.70;;;0.70;;
357;SDS011;167;47.558;7.602;2023-08-01T15:19:30;0.60;;;0.60;;
357;SDS011;167;47.558;7.602;2023-08-01T15:21:56;0.93;;;0.50;;
357;SDS011;167;47.558;7.602;2023-08-01T15:24:22;0.93;;;0.80;;
357;SDS011;167;47.558;7.602;2023-08-01T15:26:48;0.60;;;0.60;;
357;SDS011;167;47.558;7.602;2023-08-01T15:29:14;0.70;;;0.70;;
357;SDS011;167;47.558;7.602;2023-08-01T15:31:41;0.70;;;0.70;;
357;SDS011;167;47.558;7.602;2023-08-01T15:34:06;1.03;;;1.00;;
357;SDS011;167;47.558;7.602;2023-08-01T15:36:35;1.27;;;0.80;;
357;SDS011;167;47.558;7.602;2023-08-01T15:39:01;0.90;;;0.90;;
357;SDS011;167;47.558;7.602;2023-08-01T15:41:27;1.07;;;0.80;;
357;SDS011;167;47.558;7.602;2023-08-01T15:43:53;0.90;;;0.90;;
357;SDS011;167;47.558;7.602;2023-08-01T15:46:19;0.80;;;0.80;;